KLWB/LWB METAR and TAF weather

Enter ICAO airport designator
Station Type Date Time Source
KLWB METAR 2021/03/02 13:55 UTC NOAA

KLWB 021355Z AUTO 00000KT 10SM CLR M02/M11 A3022 RMK AO2 T10231112


Station Type Date Time Source
KLWB Decoded METAR 2021/03/02 13:55 UTC NOAA

Lewisburg / Greenbrier, WV, United States (KLWB) 37-52N 080-24W
Mar 02, 2021 - 08:55 AM EST / 2021.03.02 1355 UTC
Wind: Calm:0
Visibility: 10 mile(s):0
Sky conditions: clear
Temperature: 27.9 F (-2.3 C)
Dew Point: 11.8 F (-11.2 C)
Relative Humidity: 50%
Pressure (altimeter): 30.22 in. Hg (1023 hPa)
ob: KLWB 021355Z AUTO 00000KT 10SM CLR M02/M11 A3022 RMK AO2 T10231112
cycle: 14

Station Type Date Time Source
KLWB TAF 2021/03/02 12:22 UTC NOAA

TAF KLWB 021120Z 0212/0312 33005KT P6SM SKC

Example: see airport list